sensor_id;sensor_type;location;lat;lon;timestamp;pressure;altitude;pressure_sealevel;temperature;humidity
80424;BME280;69765;47.668;19.326;2023-08-31T00:02:12;98410.03;;;14.39;100.00
80424;BME280;69765;47.668;19.326;2023-08-31T00:05:14;98398.16;;;14.42;100.00
80424;BME280;69765;47.668;19.326;2023-08-31T00:08:17;98407.53;;;14.40;100.00
80424;BME280;69765;47.668;19.326;2023-08-31T00:11:19;98408.31;;;14.39;100.00
80424;BME280;69765;47.668;19.326;2023-08-31T00:14:24;98411.56;;;14.33;100.00
80424;BME280;69765;47.668;19.326;2023-08-31T00:17:27;98408.78;;;14.29;100.00
80424;BME280;69765;47.668;19.326;2023-08-31T00:20:32;98407.00;;;14.26;100.00
80424;BME280;69765;47.668;19.326;2023-08-31T00:23:35;98401.88;;;14.28;100.00
80424;BME280;69765;47.668;19.326;2023-08-31T00:26:39;98407.03;;;14.28;100.00
80424;BME280;69765;47.668;19.326;2023-08-31T00:29:43;98403.59;;;14.27;100.00
80424;BME280;69765;47.668;19.326;2023-08-31T00:32:50;98409.44;;;14.23;100.00
80424;BME280;69765;47.668;19.326;2023-08-31T00:35:53;98414.63;;;14.25;100.00
80424;BME280;69765;47.668;19.326;2023-08-31T00:38:58;98416.25;;;14.21;100.00
80424;BME280;69765;47.668;19.326;2023-08-31T00:42:01;98415.41;;;14.22;100.00
80424;BME280;69765;47.668;19.326;2023-08-31T00:45:03;98404.88;;;14.16;100.00
80424;BME280;69765;47.668;19.326;2023-08-31T00:48:06;98411.97;;;14.22;100.00
80424;BME280;69765;47.668;19.326;2023-08-31T00:51:08;98410.38;;;14.25;100.00
80424;BME280;69765;47.668;19.326;2023-08-31T00:54:12;98410.44;;;14.27;100.00
80424;BME280;69765;47.668;19.326;2023-08-31T00:57:15;98412.19;;;14.28;100.00
80424;BME280;69765;47.668;19.326;2023-08-31T01:00:17;98415.59;;;14.27;100.00
80424;BME280;69765;47.668;19.326;2023-08-31T01:06:55;98405.38;;;14.30;100.00
80424;BME280;69765;47.668;19.326;2023-08-31T01:13:15;98413.06;;;14.28;100.00
80424;BME280;69765;47.668;19.326;2023-08-31T01:16:21;98410.53;;;14.30;100.00
80424;BME280;69765;47.668;19.326;2023-08-31T01:19:43;98421.34;;;14.42;100.00
80424;BME280;69765;47.668;19.326;2023-08-31T01:23:11;98420.59;;;14.45;100.00
80424;BME280;69765;47.668;19.326;2023-08-31T01:26:17;98425.13;;;14.50;100.00
80424;BME280;69765;47.668;19.326;2023-08-31T01:29:19;98415.19;;;14.60;99.87
80424;BME280;69765;47.668;19.326;2023-08-31T01:32:22;98415.41;;;14.66;99.04
80424;BME280;69765;47.668;19.326;2023-08-31T01:35:25;98417.50;;;14.76;98.84
80424;BME280;69765;47.668;19.326;2023-08-31T01:38:30;98422.13;;;14.85;98.27
80424;BME280;69765;47.668;19.326;2023-08-31T01:41:36;98431.03;;;14.93;97.76
80424;BME280;69765;47.668;19.326;2023-08-31T01:44:41;98428.38;;;14.91;97.98
80424;BME280;69765;47.668;19.326;2023-08-31T01:47:44;98425.88;;;14.93;98.05
80424;BME280;69765;47.668;19.326;2023-08-31T01:50:47;98425.19;;;14.98;97.51
80424;BME280;69765;47.668;19.326;2023-08-31T01:53:50;98428.44;;;14.93;97.97
80424;BME280;69765;47.668;19.326;2023-08-31T01:56:52;98434.84;;;15.04;97.47
80424;BME280;69765;47.668;19.326;2023-08-31T01:59:55;98431.53;;;15.06;97.21
80424;BME280;69765;47.668;19.326;2023-08-31T02:02:57;98432.41;;;15.07;97.08
80424;BME280;69765;47.668;19.326;2023-08-31T02:06:00;98432.41;;;15.07;96.92
80424;BME280;69765;47.668;19.326;2023-08-31T02:09:02;98434.97;;;15.07;96.91
80424;BME280;69765;47.668;19.326;2023-08-31T02:12:05;98440.13;;;15.07;97.02
80424;BME280;69765;47.668;19.326;2023-08-31T02:15:08;98428.53;;;14.96;97.71
80424;BME280;69765;47.668;19.326;2023-08-31T02:18:11;98430.72;;;14.85;98.45
80424;BME280;69765;47.668;19.326;2023-08-31T02:21:14;98431.09;;;14.72;99.33
80424;BME280;69765;47.668;19.326;2023-08-31T02:24:16;98427.88;;;14.77;98.78
80424;BME280;69765;47.668;19.326;2023-08-31T02:27:19;98434.13;;;14.84;98.52
80424;BME280;69765;47.668;19.326;2023-08-31T02:30:23;98437.59;;;14.85;98.30
80424;BME280;69765;47.668;19.326;2023-08-31T02:33:25;98441.09;;;14.87;98.17
80424;BME280;69765;47.668;19.326;2023-08-31T02:36:28;98437.38;;;14.78;98.22
80424;BME280;69765;47.668;19.326;2023-08-31T02:39:30;98434.72;;;14.77;98.04
80424;BME280;69765;47.668;19.326;2023-08-31T02:42:33;98437.47;;;14.81;97.78
80424;BME280;69765;47.668;19.326;2023-08-31T02:45:36;98438.19;;;14.77;97.63
80424;BME280;69765;47.668;19.326;2023-08-31T02:48:38;98441.41;;;14.72;98.01
80424;BME280;69765;47.668;19.326;2023-08-31T02:51:41;98448.78;;;14.63;98.74
80424;BME280;69765;47.668;19.326;2023-08-31T02:54:43;98450.38;;;14.59;99.65
80424;BME280;69765;47.668;19.326;2023-08-31T02:57:46;98446.97;;;14.60;99.36
80424;BME280;69765;47.668;19.326;2023-08-31T03:00:48;98453.06;;;14.62;98.94
80424;BME280;69765;47.668;19.326;2023-08-31T03:03:51;98455.53;;;14.59;99.10
80424;BME280;69765;47.668;19.326;2023-08-31T03:06:55;98459.88;;;14.60;98.85
80424;BME280;69765;47.668;19.326;2023-08-31T03:09:58;98460.75;;;14.61;98.80
80424;BME280;69765;47.668;19.326;2023-08-31T03:13:00;98464.06;;;14.58;98.45
80424;BME280;69765;47.668;19.326;2023-08-31T03:16:02;98464.16;;;14.60;98.31
80424;BME280;69765;47.668;19.326;2023-08-31T03:19:05;98456.22;;;14.55;98.34
80424;BME280;69765;47.668;19.326;2023-08-31T03:22:08;98457.09;;;14.55;98.08
80424;BME280;69765;47.668;19.326;2023-08-31T03:25:10;98459.63;;;14.54;98.03
80424;BME280;69765;47.668;19.326;2023-08-31T03:28:13;98456.97;;;14.52;98.75
80424;BME280;69765;47.668;19.326;2023-08-31T03:31:15;98447.38;;;14.48;98.56
80424;BME280;69765;47.668;19.326;2023-08-31T03:34:18;98457.94;;;14.54;98.19
80424;BME280;69765;47.668;19.326;2023-08-31T03:37:20;98458.72;;;14.53;98.29
80424;BME280;69765;47.668;19.326;2023-08-31T03:40:24;98465.66;;;14.54;98.80
80424;BME280;69765;47.668;19.326;2023-08-31T03:43:26;98462.84;;;14.48;98.62
80424;BME280;69765;47.668;19.326;2023-08-31T03:46:29;98468.13;;;14.51;98.71
80424;BME280;69765;47.668;19.326;2023-08-31T03:49:32;98464.44;;;14.46;98.63
80424;BME280;69765;47.668;19.326;2023-08-31T03:52:37;98463.72;;;14.49;98.82
80424;BME280;69765;47.668;19.326;2023-08-31T03:55:39;98468.13;;;14.51;98.31
80424;BME280;69765;47.668;19.326;2023-08-31T03:58:41;98467.25;;;14.51;97.87
80424;BME280;69765;47.668;19.326;2023-08-31T04:01:44;98470.47;;;14.47;98.08
80424;BME280;69765;47.668;19.326;2023-08-31T04:04:47;98478.28;;;14.48;97.80
80424;BME280;69765;47.668;19.326;2023-08-31T04:07:49;98483.44;;;14.48;97.76
80424;BME280;69765;47.668;19.326;2023-08-31T04:10:51;98482.50;;;14.46;98.06
80424;BME280;69765;47.668;19.326;2023-08-31T04:13:55;98489.41;;;14.47;98.35
80424;BME280;69765;47.668;19.326;2023-08-31T04:16:58;98482.56;;;14.48;98.02
80424;BME280;69765;47.668;19.326;2023-08-31T04:20:00;98484.47;;;14.52;98.17
80424;BME280;69765;47.668;19.326;2023-08-31T04:23:02;98484.59;;;14.55;98.22
80424;BME280;69765;47.668;19.326;2023-08-31T04:26:12;98487.25;;;14.58;98.09
80424;BME280;69765;47.668;19.326;2023-08-31T04:29:15;98493.72;;;14.69;98.11
80424;BME280;69765;47.668;19.326;2023-08-31T04:32:17;98494.00;;;14.77;97.17
80424;BME280;69765;47.668;19.326;2023-08-31T04:35:19;98503.75;;;14.84;96.94
80424;BME280;69765;47.668;19.326;2023-08-31T04:38:22;98509.38;;;14.96;96.21
80424;BME280;69765;47.668;19.326;2023-08-31T04:41:24;98513.81;;;15.00;96.23
80424;BME280;69765;47.668;19.326;2023-08-31T04:44:26;98516.81;;;15.11;96.43
80424;BME280;69765;47.668;19.326;2023-08-31T04:47:29;98517.97;;;15.19;95.56
80424;BME280;69765;47.668;19.326;2023-08-31T04:50:31;98525.94;;;15.25;95.10
80424;BME280;69765;47.668;19.326;2023-08-31T04:53:33;98528.69;;;15.30;94.17
80424;BME280;69765;47.668;19.326;2023-08-31T04:56:36;98524.47;;;15.32;94.54
80424;BME280;69765;47.668;19.326;2023-08-31T04:59:38;98529.13;;;15.42;95.38
80424;BME280;69765;47.668;19.326;2023-08-31T05:02:40;98537.13;;;15.48;93.46
80424;BME280;69765;47.668;19.326;2023-08-31T05:05:43;98538.41;;;15.61;93.19
80424;BME280;69765;47.668;19.326;2023-08-31T05:08:49;98547.41;;;15.71;91.24
80424;BME280;69765;47.668;19.326;2023-08-31T05:11:51;98542.56;;;15.80;90.65
80424;BME280;69765;47.668;19.326;2023-08-31T05:14:53;98543.69;;;15.87;90.66
80424;BME280;69765;47.668;19.326;2023-08-31T05:17:56;98544.97;;;15.99;90.39
80424;BME280;69765;47.668;19.326;2023-08-31T05:20:58;98555.78;;;16.13;89.60
80424;BME280;69765;47.668;19.326;2023-08-31T05:24:01;98558.03;;;16.28;88.92
80424;BME280;69765;47.668;19.326;2023-08-31T05:27:03;98568.41;;;16.29;88.48
80424;BME280;69765;47.668;19.326;2023-08-31T05:30:06;98565.25;;;16.38;87.79
80424;BME280;69765;47.668;19.326;2023-08-31T05:33:09;98567.97;;;16.43;87.56
80424;BME280;69765;47.668;19.326;2023-08-31T05:36:12;98574.91;;;16.44;87.25
80424;BME280;69765;47.668;19.326;2023-08-31T05:39:14;98577.09;;;16.58;87.16
80424;BME280;69765;47.668;19.326;2023-08-31T05:42:18;98583.63;;;16.73;86.31
80424;BME280;69765;47.668;19.326;2023-08-31T05:45:21;98580.63;;;16.86;86.17
80424;BME280;69765;47.668;19.326;2023-08-31T05:48:23;98591.16;;;16.92;85.47
80424;BME280;69765;47.668;19.326;2023-08-31T05:51:25;98586.81;;;16.91;83.79
80424;BME280;69765;47.668;19.326;2023-08-31T05:54:28;98587.00;;;16.97;83.65
80424;BME280;69765;47.668;19.326;2023-08-31T05:57:31;98587.13;;;17.02;84.57
80424;BME280;69765;47.668;19.326;2023-08-31T06:00:33;98590.97;;;17.13;83.36
80424;BME280;69765;47.668;19.326;2023-08-31T06:03:35;98594.78;;;17.26;81.90
80424;BME280;69765;47.668;19.326;2023-08-31T06:06:38;98593.97;;;17.27;81.13
80424;BME280;69765;47.668;19.326;2023-08-31T06:09:40;98606.06;;;17.28;82.58
80424;BME280;69765;47.668;19.326;2023-08-31T06:12:43;98608.47;;;17.50;80.91
80424;BME280;69765;47.668;19.326;2023-08-31T06:15:45;98605.81;;;17.49;79.68
80424;BME280;69765;47.668;19.326;2023-08-31T06:18:47;98603.47;;;17.56;81.24
80424;BME280;69765;47.668;19.326;2023-08-31T06:21:50;98610.50;;;17.60;80.36
80424;BME280;69765;47.668;19.326;2023-08-31T06:24:52;98617.13;;;17.51;79.92
80424;BME280;69765;47.668;19.326;2023-08-31T06:27:54;98613.59;;;17.49;80.91
80424;BME280;69765;47.668;19.326;2023-08-31T06:30:57;98611.72;;;17.45;80.13
80424;BME280;69765;47.668;19.326;2023-08-31T06:33:59;98622.34;;;17.52;80.10
80424;BME280;69765;47.668;19.326;2023-08-31T06:37:01;98619.44;;;17.72;80.21
80424;BME280;69765;47.668;19.326;2023-08-31T06:40:07;98619.28;;;17.96;78.80
80424;BME280;69765;47.668;19.326;2023-08-31T06:43:10;98625.44;;;17.99;77.89
80424;BME280;69765;47.668;19.326;2023-08-31T06:46:13;98629.16;;;18.09;78.06
80424;BME280;69765;47.668;19.326;2023-08-31T06:49:26;98624.19;;;18.50;76.30
80424;BME280;69765;47.668;19.326;2023-08-31T06:52:29;98619.41;;;19.00;75.10
80424;BME280;69765;47.668;19.326;2023-08-31T06:55:33;98619.31;;;19.72;72.95
80424;BME280;69765;47.668;19.326;2023-08-31T06:58:36;98614.22;;;20.22;69.96
80424;BME280;69765;47.668;19.326;2023-08-31T07:01:38;98616.81;;;20.69;67.82
80424;BME280;69765;47.668;19.326;2023-08-31T07:04:41;98623.81;;;20.72;66.86
80424;BME280;69765;47.668;19.326;2023-08-31T07:07:43;98619.31;;;20.61;65.35
80424;BME280;69765;47.668;19.326;2023-08-31T07:10:46;98622.00;;;20.67;65.05
80424;BME280;69765;47.668;19.326;2023-08-31T07:13:49;98628.97;;;20.68;64.42
80424;BME280;69765;47.668;19.326;2023-08-31T07:16:52;98633.31;;;20.68;64.38
80424;BME280;69765;47.668;19.326;2023-08-31T07:19:54;98634.13;;;20.65;64.49
80424;BME280;69765;47.668;19.326;2023-08-31T07:22:56;98640.22;;;20.66;64.11
80424;BME280;69765;47.668;19.326;2023-08-31T07:25:59;98641.88;;;20.62;64.26
80424;BME280;69765;47.668;19.326;2023-08-31T07:29:02;98646.22;;;20.63;64.49
80424;BME280;69765;47.668;19.326;2023-08-31T07:32:06;98656.81;;;20.73;64.70
80424;BME280;69765;47.668;19.326;2023-08-31T07:35:08;98662.25;;;20.88;63.06
80424;BME280;69765;47.668;19.326;2023-08-31T07:38:11;98655.16;;;21.31;63.53
80424;BME280;69765;47.668;19.326;2023-08-31T07:41:13;98656.63;;;21.71;61.92
80424;BME280;69765;47.668;19.326;2023-08-31T07:44:16;98660.31;;;21.88;59.00
80424;BME280;69765;47.668;19.326;2023-08-31T07:47:18;98659.13;;;22.30;58.59
80424;BME280;69765;47.668;19.326;2023-08-31T07:50:20;98672.47;;;22.62;57.81
80424;BME280;69765;47.668;19.326;2023-08-31T07:53:23;98663.03;;;22.75;56.92
80424;BME280;69765;47.668;19.326;2023-08-31T07:56:25;98664.84;;;22.84;55.15
80424;BME280;69765;47.668;19.326;2023-08-31T07:59:27;98667.44;;;22.78;55.48
80424;BME280;69765;47.668;19.326;2023-08-31T08:02:29;98678.00;;;22.90;55.09
80424;BME280;69765;47.668;19.326;2023-08-31T08:05:32;98674.78;;;23.21;54.47
80424;BME280;69765;47.668;19.326;2023-08-31T08:08:34;98683.06;;;23.81;52.75
80424;BME280;69765;47.668;19.326;2023-08-31T08:11:36;98678.72;;;23.86;50.88
80424;BME280;69765;47.668;19.326;2023-08-31T08:14:39;98681.38;;;23.98;51.14
80424;BME280;69765;47.668;19.326;2023-08-31T08:17:41;98687.53;;;24.05;51.60
80424;BME280;69765;47.668;19.326;2023-08-31T08:20:47;98694.59;;;24.29;48.63
80424;BME280;69765;47.668;19.326;2023-08-31T08:23:50;98690.28;;;24.45;48.53
80424;BME280;69765;47.668;19.326;2023-08-31T08:26:54;98699.91;;;24.49;48.32
80424;BME280;69765;47.668;19.326;2023-08-31T08:29:56;98695.59;;;24.69;48.14
80424;BME280;69765;47.668;19.326;2023-08-31T08:32:59;98699.16;;;25.10;47.89
80424;BME280;69765;47.668;19.326;2023-08-31T08:36:01;98698.06;;;26.32;45.55
80424;BME280;69765;47.668;19.326;2023-08-31T08:39:04;98708.53;;;26.45;41.68
80424;BME280;69765;47.668;19.326;2023-08-31T08:42:07;98698.41;;;27.21;40.84
80424;BME280;69765;47.668;19.326;2023-08-31T08:45:15;98699.53;;;26.82;43.09
80424;BME280;69765;47.668;19.326;2023-08-31T08:48:18;98706.75;;;27.66;40.58
80424;BME280;69765;47.668;19.326;2023-08-31T08:51:21;98709.78;;;28.14;37.94
80424;BME280;69765;47.668;19.326;2023-08-31T08:54:24;98702.91;;;28.00;38.21
80424;BME280;69765;47.668;19.326;2023-08-31T08:57:26;98718.69;;;28.71;37.73
80424;BME280;69765;47.668;19.326;2023-08-31T09:00:29;98714.41;;;28.63;36.47
80424;BME280;69765;47.668;19.326;2023-08-31T09:03:32;98715.75;;;30.41;34.69
80424;BME280;69765;47.668;19.326;2023-08-31T09:06:34;98714.75;;;30.03;34.33
80424;BME280;69765;47.668;19.326;2023-08-31T09:09:52;98716.34;;;32.00;31.71
80424;BME280;69765;47.668;19.326;2023-08-31T09:12:55;98717.88;;;32.40;30.73
80424;BME280;69765;47.668;19.326;2023-08-31T09:15:57;98718.22;;;33.15;30.11
80424;BME280;69765;47.668;19.326;2023-08-31T09:19:20;98731.69;;;32.80;29.86
80424;BME280;69765;47.668;19.326;2023-08-31T09:22:23;98740.78;;;32.11;30.12
80424;BME280;69765;47.668;19.326;2023-08-31T09:25:26;98741.56;;;33.05;28.31
80424;BME280;69765;47.668;19.326;2023-08-31T09:28:28;98737.56;;;33.46;27.64
80424;BME280;69765;47.668;19.326;2023-08-31T09:31:31;98745.41;;;33.49;27.84
80424;BME280;69765;47.668;19.326;2023-08-31T09:34:34;98746.38;;;33.73;27.45
80424;BME280;69765;47.668;19.326;2023-08-31T09:37:36;98744.47;;;33.52;27.15
80424;BME280;69765;47.668;19.326;2023-08-31T09:40:39;98749.94;;;33.72;26.97
80424;BME280;69765;47.668;19.326;2023-08-31T09:43:42;98744.00;;;34.16;26.60
80424;BME280;69765;47.668;19.326;2023-08-31T09:46:45;98750.44;;;35.04;25.27
80424;BME280;69765;47.668;19.326;2023-08-31T09:49:48;98744.19;;;35.49;25.24
80424;BME280;69765;47.668;19.326;2023-08-31T09:52:53;98748.75;;;35.23;25.64
80424;BME280;69765;47.668;19.326;2023-08-31T09:55:57;98744.31;;;35.02;25.20
80424;BME280;69765;47.668;19.326;2023-08-31T09:59:00;98746.78;;;34.13;26.23
80424;BME280;69765;47.668;19.326;2023-08-31T10:02:03;98745.63;;;33.15;27.11
80424;BME280;69765;47.668;19.326;2023-08-31T10:05:06;98755.47;;;32.54;28.21
80424;BME280;69765;47.668;19.326;2023-08-31T10:08:12;98754.84;;;33.60;26.27
80424;BME280;69765;47.668;19.326;2023-08-31T10:11:16;98758.38;;;34.10;26.66
80424;BME280;69765;47.668;19.326;2023-08-31T10:14:20;98763.31;;;33.71;26.73
80424;BME280;69765;47.668;19.326;2023-08-31T10:17:25;98763.06;;;33.24;27.36
80424;BME280;69765;47.668;19.326;2023-08-31T10:20:29;98759.78;;;33.44;27.58
80424;BME280;69765;47.668;19.326;2023-08-31T10:23:33;98764.81;;;34.04;26.89
80424;BME280;69765;47.668;19.326;2023-08-31T10:26:40;98760.16;;;34.34;26.89
80424;BME280;69765;47.668;19.326;2023-08-31T10:29:43;98758.31;;;33.62;27.00
80424;BME280;69765;47.668;19.326;2023-08-31T10:32:45;98761.19;;;34.07;25.99
80424;BME280;69765;47.668;19.326;2023-08-31T10:35:54;98760.44;;;34.52;25.60
80424;BME280;69765;47.668;19.326;2023-08-31T10:42:00;98774.16;;;34.16;26.39
80424;BME280;69765;47.668;19.326;2023-08-31T10:45:06;98773.44;;;33.31;27.23
80424;BME280;69765;47.668;19.326;2023-08-31T10:48:09;98774.94;;;33.12;26.65
80424;BME280;69765;47.668;19.326;2023-08-31T10:51:16;98780.88;;;31.26;29.83
80424;BME280;69765;47.668;19.326;2023-08-31T10:57:29;98775.25;;;29.69;35.21
80424;BME280;69765;47.668;19.326;2023-08-31T11:00:52;98779.91;;;29.55;34.67
80424;BME280;69765;47.668;19.326;2023-08-31T11:03:58;98780.78;;;28.92;34.82
80424;BME280;69765;47.668;19.326;2023-08-31T11:07:18;98797.69;;;28.02;37.53
80424;BME280;69765;47.668;19.326;2023-08-31T11:10:25;98796.38;;;27.47;39.24
80424;BME280;69765;47.668;19.326;2023-08-31T11:13:30;98803.59;;;27.22;39.71
80424;BME280;69765;47.668;19.326;2023-08-31T11:16:32;98802.72;;;27.25;39.18
80424;BME280;69765;47.668;19.326;2023-08-31T11:19:35;98815.09;;;27.03;40.18
80424;BME280;69765;47.668;19.326;2023-08-31T11:22:43;98807.38;;;26.69;39.11
80424;BME280;69765;47.668;19.326;2023-08-31T11:25:47;98804.72;;;26.71;40.16
80424;BME280;69765;47.668;19.326;2023-08-31T11:28:49;98810.06;;;26.56;40.11
80424;BME280;69765;47.668;19.326;2023-08-31T11:31:52;98814.34;;;26.72;39.74
80424;BME280;69765;47.668;19.326;2023-08-31T11:34:54;98815.25;;;26.74;41.00
80424;BME280;69765;47.668;19.326;2023-08-31T11:37:57;98819.63;;;26.78;39.47
80424;BME280;69765;47.668;19.326;2023-08-31T11:40:59;98811.66;;;26.89;38.53
80424;BME280;69765;47.668;19.326;2023-08-31T11:44:04;98812.19;;;29.12;34.88
80424;BME280;69765;47.668;19.326;2023-08-31T11:47:07;98826.34;;;28.36;35.83
80424;BME280;69765;47.668;19.326;2023-08-31T11:50:11;98822.44;;;27.84;36.67
80424;BME280;69765;47.668;19.326;2023-08-31T11:53:13;98820.91;;;27.54;36.98
80424;BME280;69765;47.668;19.326;2023-08-31T11:56:16;98809.72;;;27.26;38.60
80424;BME280;69765;47.668;19.326;2023-08-31T11:59:20;98815.56;;;27.63;37.69
80424;BME280;69765;47.668;19.326;2023-08-31T12:02:22;98819.59;;;28.84;35.90
80424;BME280;69765;47.668;19.326;2023-08-31T12:05:26;98818.84;;;27.93;37.29
80424;BME280;69765;47.668;19.326;2023-08-31T12:08:30;98812.28;;;27.32;37.34
80424;BME280;69765;47.668;19.326;2023-08-31T12:11:32;98822.91;;;27.21;38.31
80424;BME280;69765;47.668;19.326;2023-08-31T12:14:37;98821.19;;;27.14;38.76
80424;BME280;69765;47.668;19.326;2023-08-31T12:17:40;98817.50;;;27.41;38.58
80424;BME280;69765;47.668;19.326;2023-08-31T12:20:49;98823.28;;;28.72;36.74
80424;BME280;69765;47.668;19.326;2023-08-31T12:23:57;98814.66;;;29.24;34.67
80424;BME280;69765;47.668;19.326;2023-08-31T12:26:59;98823.78;;;29.02;34.54
80424;BME280;69765;47.668;19.326;2023-08-31T12:30:02;98822.91;;;29.62;33.99
80424;BME280;69765;47.668;19.326;2023-08-31T12:33:04;98815.34;;;29.91;31.91
80424;BME280;69765;47.668;19.326;2023-08-31T12:36:07;98815.97;;;30.05;31.56
80424;BME280;69765;47.668;19.326;2023-08-31T12:39:10;98818.16;;;28.59;34.86
80424;BME280;69765;47.668;19.326;2023-08-31T12:42:12;98822.72;;;27.46;36.72
80424;BME280;69765;47.668;19.326;2023-08-31T12:45:25;98821.91;;;27.36;37.32
80424;BME280;69765;47.668;19.326;2023-08-31T12:48:27;98811.41;;;27.35;36.81
80424;BME280;69765;47.668;19.326;2023-08-31T12:51:30;98821.88;;;27.41;36.26
80424;BME280;69765;47.668;19.326;2023-08-31T12:54:32;98819.31;;;28.32;34.84
80424;BME280;69765;47.668;19.326;2023-08-31T12:57:35;98816.75;;;29.61;32.51
80424;BME280;69765;47.668;19.326;2023-08-31T13:00:37;98811.16;;;30.31;30.67
80424;BME280;69765;47.668;19.326;2023-08-31T13:03:39;98811.41;;;30.17;30.78
80424;BME280;69765;47.668;19.326;2023-08-31T13:06:42;98811.56;;;29.53;31.74
80424;BME280;69765;47.668;19.326;2023-08-31T13:09:44;98817.25;;;29.85;31.95
80424;BME280;69765;47.668;19.326;2023-08-31T13:12:49;98822.84;;;29.66;32.36
80424;BME280;69765;47.668;19.326;2023-08-31T13:15:52;98825.13;;;29.31;31.96
80424;BME280;69765;47.668;19.326;2023-08-31T13:18:54;98825.56;;;29.00;32.86
80424;BME280;69765;47.668;19.326;2023-08-31T13:21:57;98827.09;;;28.45;34.30
80424;BME280;69765;47.668;19.326;2023-08-31T13:24:59;98823.84;;;28.17;34.16
80424;BME280;69765;47.668;19.326;2023-08-31T13:28:02;98818.59;;;27.08;35.78
80424;BME280;69765;47.668;19.326;2023-08-31T13:31:06;98826.59;;;26.81;36.75
80424;BME280;69765;47.668;19.326;2023-08-31T13:34:08;98825.69;;;26.85;36.75
80424;BME280;69765;47.668;19.326;2023-08-31T13:37:12;98822.19;;;26.89;36.06
80424;BME280;69765;47.668;19.326;2023-08-31T13:40:15;98820.56;;;26.57;36.76
80424;BME280;69765;47.668;19.326;2023-08-31T13:43:17;98828.50;;;26.45;36.29
80424;BME280;69765;47.668;19.326;2023-08-31T13:46:20;98825.81;;;26.56;37.94
80424;BME280;69765;47.668;19.326;2023-08-31T13:49:22;98825.88;;;26.23;36.47
80424;BME280;69765;47.668;19.326;2023-08-31T13:52:24;98836.47;;;25.93;37.03
80424;BME280;69765;47.668;19.326;2023-08-31T13:55:26;98830.34;;;25.79;37.98
80424;BME280;69765;47.668;19.326;2023-08-31T13:58:29;98840.78;;;25.45;38.91
80424;BME280;69765;47.668;19.326;2023-08-31T14:01:31;98838.19;;;25.74;38.22
80424;BME280;69765;47.668;19.326;2023-08-31T14:04:34;98834.69;;;25.87;37.86
80424;BME280;69765;47.668;19.326;2023-08-31T14:07:37;98833.81;;;25.99;37.21
80424;BME280;69765;47.668;19.326;2023-08-31T14:10:40;98837.31;;;25.69;37.79
80424;BME280;69765;47.668;19.326;2023-08-31T14:13:43;98841.72;;;25.76;38.69
80424;BME280;69765;47.668;19.326;2023-08-31T14:16:46;98842.59;;;25.93;38.96
80424;BME280;69765;47.668;19.326;2023-08-31T14:19:49;98840.81;;;26.09;38.81
80424;BME280;69765;47.668;19.326;2023-08-31T14:22:51;98839.94;;;26.09;37.27
80424;BME280;69765;47.668;19.326;2023-08-31T14:25:54;98847.81;;;25.90;37.24
80424;BME280;69765;47.668;19.326;2023-08-31T14:28:56;98850.41;;;25.49;38.18
80424;BME280;69765;47.668;19.326;2023-08-31T14:31:58;98852.16;;;25.44;37.96
80424;BME280;69765;47.668;19.326;2023-08-31T14:35:01;98860.00;;;25.27;38.02
80424;BME280;69765;47.668;19.326;2023-08-31T14:38:04;98853.91;;;25.49;38.76
80424;BME280;69765;47.668;19.326;2023-08-31T14:41:08;98857.44;;;25.74;38.30
80424;BME280;69765;47.668;19.326;2023-08-31T14:44:11;98861.81;;;25.82;38.60
80424;BME280;69765;47.668;19.326;2023-08-31T14:47:13;98854.81;;;25.76;39.38
80424;BME280;69765;47.668;19.326;2023-08-31T14:50:16;98858.31;;;26.01;38.40
80424;BME280;69765;47.668;19.326;2023-08-31T14:53:18;98859.19;;;25.65;38.21
80424;BME280;69765;47.668;19.326;2023-08-31T14:56:20;98861.78;;;25.66;39.21
80424;BME280;69765;47.668;19.326;2023-08-31T14:59:23;98866.16;;;25.58;38.68
80424;BME280;69765;47.668;19.326;2023-08-31T15:02:27;98867.03;;;25.42;39.72
80424;BME280;69765;47.668;19.326;2023-08-31T15:05:29;98867.00;;;25.34;39.87
80424;BME280;69765;47.668;19.326;2023-08-31T15:08:37;98870.47;;;25.21;40.40
80424;BME280;69765;47.668;19.326;2023-08-31T15:11:40;98868.69;;;25.11;40.21
80424;BME280;69765;47.668;19.326;2023-08-31T15:14:42;98878.25;;;25.04;40.70
80424;BME280;69765;47.668;19.326;2023-08-31T15:17:45;98873.94;;;25.21;40.98
80424;BME280;69765;47.668;19.326;2023-08-31T15:20:47;98879.19;;;25.17;39.94
80424;BME280;69765;47.668;19.326;2023-08-31T15:23:50;98879.19;;;25.14;39.84
80424;BME280;69765;47.668;19.326;2023-08-31T15:26:52;98885.31;;;25.14;39.75
80424;BME280;69765;47.668;19.326;2023-08-31T15:29:55;98887.88;;;25.04;40.47
80424;BME280;69765;47.668;19.326;2023-08-31T15:33:03;98898.34;;;24.99;41.67
80424;BME280;69765;47.668;19.326;2023-08-31T15:36:08;98891.22;;;24.72;41.00
80424;BME280;69765;47.668;19.326;2023-08-31T15:39:10;98895.47;;;24.48;43.01
80424;BME280;69765;47.668;19.326;2023-08-31T15:42:14;98900.59;;;24.33;43.82
80424;BME280;69765;47.668;19.326;2023-08-31T15:45:17;98898.69;;;24.11;42.61
80424;BME280;69765;47.668;19.326;2023-08-31T15:48:20;98908.91;;;23.82;43.34
80424;BME280;69765;47.668;19.326;2023-08-31T15:51:22;98892.25;;;23.72;44.33
80424;BME280;69765;47.668;19.326;2023-08-31T15:54:24;98894.66;;;23.55;44.54
80424;BME280;69765;47.668;19.326;2023-08-31T15:57:27;98905.88;;;23.42;45.18
80424;BME280;69765;47.668;19.326;2023-08-31T16:00:30;98905.03;;;23.44;45.64
80424;BME280;69765;47.668;19.326;2023-08-31T16:03:33;98902.22;;;23.28;45.87
80424;BME280;69765;47.668;19.326;2023-08-31T16:06:36;98910.94;;;23.25;46.49
80424;BME280;69765;47.668;19.326;2023-08-31T16:09:39;98929.19;;;23.20;47.21
80424;BME280;69765;47.668;19.326;2023-08-31T16:12:42;98917.56;;;22.97;45.29